Time;durP1;ratioP1;P1;durP2;ratioP2;P2;SDS_P1;SDS_P2;PMS_P1;PMS_P2;Temp;Humidity;BMP_temperature;BMP_pressure;BME280_temperature;BME280_humidity;BME280_pressure;Samples;Min_cycle;Max_cycle;Signal;HPM_P1;HPM_P2
2024/01/01 00:00:37;;;;;;;12.10;7.50;;;10.10;99.90;;;;;;5053413;28;20225;-69
2024/01/01 00:03:03;;;;;;;11.13;7.57;;;10.10;99.90;;;;;;5070562;28;20174;-69
2024/01/01 00:05:29;;;;;;;9.85;6.20;;;10.10;99.90;;;;;;5070379;28;20185;-69
2024/01/01 00:07:57;;;;;;;10.02;5.57;;;10.10;99.90;;;;;;5033561;28;20194;-68
2024/01/01 00:10:25;;;;;;;9.25;5.00;;;10.00;99.90;;;;;;5030247;28;20178;-69
2024/01/01 00:12:55;;;;;;;6.60;4.20;;;10.00;99.90;;;;;;5014857;28;20175;-68
2024/01/01 00:15:21;;;;;;;6.10;4.03;;;10.10;99.90;;;;;;5035942;28;20198;-68
2024/01/01 00:17:49;;;;;;;8.18;4.20;;;9.90;99.90;;;;;;5036822;28;20192;-69
2024/01/01 00:20:14;;;;;;;7.55;4.63;;;10.00;99.90;;;;;;5041718;28;20173;-68
2024/01/01 00:22:44;;;;;;;9.45;4.45;;;10.00;99.90;;;;;;5056750;28;20181;-68
2024/01/01 00:25:09;;;;;;;5.43;3.30;;;10.00;99.90;;;;;;5035087;28;20182;-70
2024/01/01 00:27:35;;;;;;;5.57;3.05;;;10.00;99.90;;;;;;5036791;28;20217;-70
2024/01/01 00:30:01;;;;;;;4.65;2.72;;;10.00;99.90;;;;;;5052781;28;20189;-68
2024/01/01 00:32:27;;;;;;;5.13;2.88;;;10.00;99.90;;;;;;5035418;28;20174;-68
2024/01/01 00:34:53;;;;;;;6.55;3.10;;;10.00;99.90;;;;;;5038098;28;20198;-68
2024/01/01 00:37:18;;;;;;;4.72;2.58;;;10.00;99.90;;;;;;5032710;28;20345;-69
2024/01/01 00:39:44;;;;;;;5.20;2.40;;;10.00;99.90;;;;;;5033131;28;20171;-69
2024/01/01 00:42:10;;;;;;;4.18;2.33;;;10.00;99.90;;;;;;5034789;28;20205;-70
2024/01/01 00:44:36;;;;;;;5.60;2.42;;;10.00;99.90;;;;;;5034081;28;20178;-68
2024/01/01 00:47:01;;;;;;;5.72;2.53;;;10.00;99.90;;;;;;5035012;28;20189;-69
2024/01/01 00:49:27;;;;;;;4.63;2.35;;;10.00;99.90;;;;;;5034131;28;20177;-69
2024/01/01 00:51:55;;;;;;;4.00;2.30;;;9.90;99.90;;;;;;5032539;28;20173;-68
2024/01/01 00:54:23;;;;;;;3.80;2.00;;;10.00;99.90;;;;;;5034427;28;20197;-69
2024/01/01 00:56:49;;;;;;;3.03;1.80;;;9.90;99.90;;;;;;5035204;28;20197;-69
2024/01/01 00:59:15;;;;;;;2.85;1.58;;;9.90;99.90;;;;;;5035969;28;20178;-70
2024/01/01 01:01:41;;;;;;;4.30;2.00;;;9.90;99.90;;;;;;5044455;28;20214;-69
2024/01/01 01:04:06;;;;;;;4.95;2.00;;;9.90;99.90;;;;;;5016249;28;20209;-69
2024/01/01 01:06:32;;;;;;;4.78;1.80;;;9.90;99.90;;;;;;5041590;28;20201;-71
2024/01/01 01:08:57;;;;;;;2.97;1.40;;;10.00;99.90;;;;;;5035518;28;20198;-70
2024/01/01 01:11:23;;;;;;;4.32;1.50;;;9.90;99.90;;;;;;5035957;28;20178;-69
2024/01/01 01:13:49;;;;;;;4.13;1.65;;;9.90;99.90;;;;;;5057224;28;20263;-69
2024/01/01 01:16:17;;;;;;;5.22;1.92;;;9.90;99.90;;;;;;5067910;28;20229;-69
2024/01/01 01:18:43;;;;;;;4.45;1.50;;;9.90;99.90;;;;;;5042295;28;20198;-69
2024/01/01 01:21:09;;;;;;;2.67;1.40;;;9.90;99.90;;;;;;5035531;28;20188;-69
2024/01/01 01:23:35;;;;;;;7.43;1.60;;;9.90;99.90;;;;;;5034902;28;20234;-69
2024/01/01 01:26:03;;;;;;;5.18;1.35;;;10.00;99.90;;;;;;5033669;28;20268;-71
2024/01/01 01:28:32;;;;;;;3.65;1.50;;;10.00;99.90;;;;;;5032947;28;20213;-68
2024/01/01 01:30:57;;;;;;;4.25;1.52;;;10.00;99.90;;;;;;5031981;28;20192;-68
2024/01/01 01:33:23;;;;;;;4.47;1.48;;;9.90;99.90;;;;;;5033943;28;20175;-69
2024/01/01 01:35:48;;;;;;;5.68;1.73;;;10.10;99.90;;;;;;5049918;28;20214;-70
2024/01/01 01:38:14;;;;;;;5.60;2.00;;;10.10;99.90;;;;;;5035771;28;20174;-67
2024/01/01 01:40:40;;;;;;;4.70;1.58;;;10.20;99.90;;;;;;5034025;28;20233;-68
2024/01/01 01:43:20;;;;;;;5.50;1.50;;;10.20;99.90;;;;;;5033883;28;20255;-68
2024/01/01 01:45:46;;;;;;;3.60;1.58;;;10.20;99.90;;;;;;5031429;28;20178;-69
2024/01/01 01:48:16;;;;;;;6.43;1.77;;;10.20;99.90;;;;;;5026093;28;20182;-69
2024/01/01 01:50:46;;;;;;;5.45;1.45;;;10.20;99.90;;;;;;5046539;28;20198;-69
2024/01/01 01:53:23;;;;;;;6.90;1.92;;;10.20;99.90;;;;;;5032077;28;20304;-67
2024/01/01 01:55:52;;;;;;;4.55;1.50;;;10.30;99.90;;;;;;5040974;28;20209;-68
2024/01/01 01:58:18;;;;;;;7.85;1.70;;;10.30;99.90;;;;;;5031924;28;20182;-68
2024/01/01 02:00:54;;;;;;;5.40;1.58;;;10.30;99.90;;;;;;5034652;28;20169;-70
2024/01/01 02:03:20;;;;;;;4.75;1.42;;;10.30;99.90;;;;;;5035184;28;20194;-68
2024/01/01 02:05:57;;;;;;;5.00;1.40;;;10.30;99.90;;;;;;5033548;28;20186;-70
2024/01/01 02:08:23;;;;;;;4.68;1.63;;;10.40;99.90;;;;;;5033196;28;20181;-70
2024/01/01 02:10:54;;;;;;;4.30;1.60;;;10.40;99.90;;;;;;5033201;28;20197;-69
2024/01/01 02:13:30;;;;;;;5.57;1.70;;;10.40;99.90;;;;;;5033417;28;20194;-70
2024/01/01 02:15:56;;;;;;;5.18;1.60;;;10.40;99.90;;;;;;5034738;28;20216;-69
2024/01/01 02:18:25;;;;;;;2.67;1.20;;;10.40;99.90;;;;;;5035501;28;20473;-68
2024/01/01 02:20:56;;;;;;;3.78;1.45;;;10.40;99.90;;;;;;5047367;28;20259;-69
2024/01/01 02:23:24;;;;;;;4.40;1.50;;;10.40;99.90;;;;;;5033394;28;20232;-70
2024/01/01 02:25:52;;;;;;;5.85;1.80;;;10.40;99.90;;;;;;5031452;28;20194;-69
2024/01/01 02:28:19;;;;;;;4.22;1.33;;;10.40;99.90;;;;;;5031888;28;20196;-69
2024/01/01 02:30:45;;;;;;;4.72;1.23;;;10.40;99.90;;;;;;5033704;28;20178;-69
2024/01/01 02:33:11;;;;;;;4.93;1.75;;;10.40;99.90;;;;;;5032039;28;20220;-69
2024/01/01 02:35:38;;;;;;;6.45;1.58;;;10.40;99.90;;;;;;5032629;28;20202;-67
2024/01/01 02:38:04;;;;;;;4.70;1.30;;;10.40;99.90;;;;;;5031423;28;20203;-68
2024/01/01 02:40:36;;;;;;;4.88;1.30;;;10.40;99.90;;;;;;5033819;28;20214;-71
2024/01/01 02:43:03;;;;;;;7.25;1.63;;;10.50;99.90;;;;;;5038629;28;20208;-70
2024/01/01 02:45:32;;;;;;;3.47;1.27;;;10.50;99.90;;;;;;5017431;28;20194;-68
2024/01/01 02:47:58;;;;;;;5.25;1.35;;;10.50;99.90;;;;;;5042187;28;20260;-68
2024/01/01 02:50:29;;;;;;;4.43;1.40;;;10.40;99.90;;;;;;5033623;28;20178;-69
2024/01/01 02:52:54;;;;;;;4.00;1.55;;;10.50;99.90;;;;;;5033066;28;20200;-67
2024/01/01 02:55:23;;;;;;;4.82;1.38;;;10.50;99.90;;;;;;5034271;28;20214;-70
2024/01/01 02:57:48;;;;;;;5.00;1.58;;;10.50;99.90;;;;;;5031780;28;20167;-69
2024/01/01 03:00:14;;;;;;;6.20;2.17;;;10.60;99.90;;;;;;5031892;28;20171;-69
2024/01/01 03:02:40;;;;;;;3.70;1.13;;;10.50;99.90;;;;;;5033762;28;20186;-69
2024/01/01 03:05:07;;;;;;;4.13;1.40;;;10.50;99.90;;;;;;5033917;28;20181;-67
2024/01/01 03:07:33;;;;;;;5.95;1.30;;;10.50;99.90;;;;;;5033773;28;20269;-68
2024/01/01 03:09:59;;;;;;;6.65;1.63;;;10.50;99.90;;;;;;5030972;28;20182;-68
2024/01/01 03:12:24;;;;;;;6.72;1.77;;;10.50;99.90;;;;;;5038432;28;20194;-68
2024/01/01 03:14:50;;;;;;;5.57;1.50;;;10.60;99.90;;;;;;5030934;28;20199;-69
2024/01/01 03:17:17;;;;;;;4.07;1.38;;;10.60;99.90;;;;;;5038673;28;20313;-69
2024/01/01 03:19:47;;;;;;;6.32;1.80;;;10.60;99.90;;;;;;5037065;28;20176;-69
2024/01/01 03:22:15;;;;;;;4.70;1.33;;;10.60;99.90;;;;;;5033402;28;20239;-70
2024/01/01 03:24:43;;;;;;;5.35;1.70;;;10.60;99.90;;;;;;5029653;28;20207;-70
2024/01/01 03:27:08;;;;;;;4.82;1.40;;;10.60;99.90;;;;;;5033427;28;20194;-70
2024/01/01 03:29:34;;;;;;;4.90;1.63;;;10.60;99.90;;;;;;5030432;28;20197;-70
2024/01/01 03:31:59;;;;;;;5.30;1.48;;;10.60;99.90;;;;;;5032172;28;20189;-69
2024/01/01 03:34:25;;;;;;;6.18;1.60;;;10.60;99.90;;;;;;5049443;28;20170;-70
2024/01/01 03:36:56;;;;;;;5.05;1.58;;;10.70;99.90;;;;;;5033444;28;20252;-70
2024/01/01 03:39:21;;;;;;;6.50;1.52;;;10.60;99.90;;;;;;5030618;28;20174;-69
2024/01/01 03:41:47;;;;;;;7.22;1.67;;;10.60;99.90;;;;;;5029574;28;20243;-69
2024/01/01 03:44:13;;;;;;;9.23;1.85;;;10.60;99.90;;;;;;5038423;28;20209;-68
2024/01/01 03:46:41;;;;;;;3.60;1.20;;;10.70;99.90;;;;;;5033893;28;20182;-68
2024/01/01 03:49:09;;;;;;;4.32;1.98;;;10.60;99.90;;;;;;5032504;28;20434;-70
2024/01/01 03:51:34;;;;;;;4.25;1.30;;;10.60;99.90;;;;;;5034062;28;20182;-70
2024/01/01 03:54:00;;;;;;;6.00;1.80;;;10.60;99.90;;;;;;5035832;28;20238;-69
2024/01/01 03:56:26;;;;;;;5.15;1.30;;;10.50;99.90;;;;;;5040361;28;20210;-68
2024/01/01 03:58:51;;;;;;;6.68;1.50;;;10.50;99.90;;;;;;5035330;28;20445;-69
2024/01/01 04:01:21;;;;;;;5.80;1.70;;;10.50;99.90;;;;;;5034875;28;20206;-68
2024/01/01 04:03:46;;;;;;;5.78;1.83;;;10.50;99.90;;;;;;5035452;28;20182;-69
2024/01/01 04:06:12;;;;;;;6.10;1.98;;;10.50;99.90;;;;;;5053979;28;20409;-68
2024/01/01 04:08:40;;;;;;;5.43;1.60;;;10.40;99.90;;;;;;5032454;28;20187;-70
2024/01/01 04:11:08;;;;;;;5.30;1.52;;;10.40;99.90;;;;;;5032524;28;20195;-68
2024/01/01 04:13:36;;;;;;;6.05;1.58;;;10.40;99.90;;;;;;5052225;28;20174;-69
2024/01/01 04:16:02;;;;;;;6.72;1.60;;;10.40;99.90;;;;;;5038785;28;20197;-70
2024/01/01 04:18:30;;;;;;;5.15;1.48;;;10.50;99.90;;;;;;5032879;28;20203;-63
2024/01/01 04:21:00;;;;;;;6.15;1.58;;;10.50;99.90;;;;;;5045682;28;20188;-64
2024/01/01 04:23:26;;;;;;;6.82;1.50;;;10.50;99.90;;;;;;5033186;28;20174;-63
2024/01/01 04:25:51;;;;;;;4.05;1.25;;;10.50;99.90;;;;;;5031728;28;20187;-64
2024/01/01 04:28:17;;;;;;;4.18;1.35;;;10.50;99.90;;;;;;5032223;28;20174;-63
2024/01/01 04:30:42;;;;;;;2.28;1.10;;;10.50;99.90;;;;;;5034030;28;20209;-64
2024/01/01 04:33:13;;;;;;;5.75;1.50;;;10.50;99.90;;;;;;5038190;28;20188;-64
2024/01/01 04:35:41;;;;;;;5.43;1.45;;;10.50;99.90;;;;;;5035774;28;20202;-64
2024/01/01 04:38:06;;;;;;;8.75;1.70;;;10.50;99.90;;;;;;5036090;28;20423;-64
2024/01/01 04:40:32;;;;;;;8.88;1.80;;;10.50;99.90;;;;;;5034054;28;20178;-64
2024/01/01 04:43:04;;;;;;;4.65;1.70;;;10.50;99.90;;;;;;5032370;28;20178;-63
2024/01/01 04:45:35;;;;;;;4.88;1.98;;;10.50;99.90;;;;;;5034416;28;20202;-63
2024/01/01 04:48:04;;;;;;;5.97;1.80;;;10.60;99.90;;;;;;5035877;28;20524;-61
2024/01/01 04:50:31;;;;;;;4.68;1.40;;;10.60;99.90;;;;;;5036011;28;20185;-64
2024/01/01 04:52:57;;;;;;;5.10;1.40;;;10.60;99.90;;;;;;5045369;28;20265;-64
2024/01/01 04:55:25;;;;;;;4.40;1.60;;;10.60;99.90;;;;;;5035878;28;20346;-63
2024/01/01 04:57:50;;;;;;;5.70;2.00;;;10.60;99.90;;;;;;5036224;28;20202;-64
2024/01/01 05:00:18;;;;;;;6.07;1.50;;;10.70;99.90;;;;;;5041587;28;20174;-64
2024/01/01 05:02:44;;;;;;;6.00;1.65;;;10.60;99.90;;;;;;5044204;28;20260;-64
2024/01/01 05:05:10;;;;;;;6.40;1.60;;;10.60;99.90;;;;;;5035423;28;20205;-64
2024/01/01 05:07:38;;;;;;;6.07;1.50;;;10.70;99.90;;;;;;5036630;28;20177;-63
2024/01/01 05:10:04;;;;;;;5.68;1.40;;;10.60;99.90;;;;;;5053447;28;20181;-63
2024/01/01 05:12:32;;;;;;;6.88;1.65;;;10.60;99.90;;;;;;5033633;28;20198;-63
2024/01/01 05:14:59;;;;;;;5.50;1.60;;;10.60;99.90;;;;;;5043686;28;20205;-64
2024/01/01 05:17:25;;;;;;;5.93;1.80;;;10.60;99.90;;;;;;5036506;28;20185;-64
2024/01/01 05:19:50;;;;;;;6.70;1.73;;;10.60;99.90;;;;;;5034713;28;20184;-64
2024/01/01 05:22:19;;;;;;;6.95;2.00;;;10.60;99.90;;;;;;5032818;28;20178;-64
2024/01/01 05:24:45;;;;;;;5.95;1.85;;;10.60;99.90;;;;;;5024773;28;20171;-64
2024/01/01 05:27:11;;;;;;;5.63;1.40;;;10.60;99.90;;;;;;5034230;28;20204;-64
2024/01/01 05:29:40;;;;;;;6.45;1.45;;;10.60;99.90;;;;;;5034783;28;20174;-64
2024/01/01 05:32:06;;;;;;;4.55;1.63;;;10.60;99.90;;;;;;5030683;28;20212;-64
2024/01/01 05:34:34;;;;;;;7.45;1.95;;;10.60;99.90;;;;;;5045013;28;20170;-63
2024/01/01 05:37:02;;;;;;;4.72;1.70;;;10.60;99.90;;;;;;5034018;28;20173;-63
2024/01/01 05:39:27;;;;;;;6.32;1.48;;;10.70;99.90;;;;;;5037486;28;20174;-64
2024/01/01 05:41:55;;;;;;;7.18;1.67;;;10.60;99.90;;;;;;5033630;28;20232;-63
2024/01/01 05:44:21;;;;;;;6.00;1.70;;;10.70;99.90;;;;;;5029981;28;20232;-63
2024/01/01 05:46:47;;;;;;;5.63;1.67;;;10.60;99.90;;;;;;5035713;28;20178;-64
2024/01/01 05:49:15;;;;;;;5.88;1.90;;;10.60;99.90;;;;;;5029102;28;20198;-64
2024/01/01 05:51:40;;;;;;;7.15;1.95;;;10.60;99.90;;;;;;5032895;28;20186;-64
2024/01/01 05:54:08;;;;;;;6.22;1.65;;;10.60;99.90;;;;;;5035264;28;20188;-64
2024/01/01 05:56:36;;;;;;;5.38;1.50;;;10.60;99.90;;;;;;5036301;28;20206;-64
2024/01/01 05:59:04;;;;;;;7.45;1.77;;;10.60;99.90;;;;;;5037259;28;20170;-64
2024/01/01 06:01:32;;;;;;;4.28;1.52;;;10.60;99.90;;;;;;5035461;28;20170;-64
2024/01/01 06:03:57;;;;;;;6.70;2.10;;;10.60;99.90;;;;;;5032348;28;20210;-63
2024/01/01 06:06:26;;;;;;;5.05;1.48;;;10.50;99.90;;;;;;5033635;28;20264;-64
2024/01/01 06:08:54;;;;;;;11.55;1.80;;;10.50;99.90;;;;;;5035084;28;20174;-64
2024/01/01 06:11:19;;;;;;;8.05;2.67;;;10.50;99.90;;;;;;5030090;28;20479;-64
2024/01/01 06:13:45;;;;;;;9.13;2.35;;;10.50;99.90;;;;;;5032152;28;20273;-64
2024/01/01 06:16:14;;;;;;;9.35;1.80;;;10.50;99.90;;;;;;5033167;28;20225;-64
2024/01/01 06:18:39;;;;;;;4.47;1.70;;;10.40;99.90;;;;;;5033823;28;20194;-64
2024/01/01 06:21:05;;;;;;;6.55;1.70;;;10.40;99.90;;;;;;5033748;28;20208;-64
2024/01/01 06:23:33;;;;;;;8.35;1.90;;;10.50;99.90;;;;;;5032002;28;20214;-63
2024/01/01 06:25:58;;;;;;;7.43;1.88;;;10.40;99.90;;;;;;5032638;28;20197;-64
2024/01/01 06:28:26;;;;;;;7.90;1.98;;;10.40;99.90;;;;;;5048582;28;20185;-63
2024/01/01 06:30:54;;;;;;;7.30;1.98;;;10.40;99.90;;;;;;5031459;28;20256;-63
2024/01/01 06:33:22;;;;;;;6.45;1.70;;;10.40;99.90;;;;;;5036285;28;20178;-63
2024/01/01 06:35:50;;;;;;;6.28;1.70;;;10.40;99.90;;;;;;5036107;28;20201;-63
2024/01/01 06:38:18;;;;;;;6.75;1.70;;;10.40;99.90;;;;;;5033504;28;20178;-63
2024/01/01 06:40:45;;;;;;;3.42;1.40;;;10.40;99.90;;;;;;5034500;28;20181;-63
2024/01/01 06:43:11;;;;;;;6.80;1.60;;;10.40;99.90;;;;;;5033339;28;20205;-62
2024/01/01 06:45:39;;;;;;;5.07;1.60;;;10.40;99.90;;;;;;5031670;28;20181;-63
2024/01/01 06:48:09;;;;;;;4.18;1.40;;;10.40;99.90;;;;;;5051041;28;20182;-63
2024/01/01 06:50:34;;;;;;;7.07;1.90;;;10.40;99.90;;;;;;5030134;28;20273;-63
2024/01/01 06:53:00;;;;;;;7.60;1.58;;;10.40;99.90;;;;;;5032982;28;20371;-63
2024/01/01 06:55:27;;;;;;;8.20;1.92;;;10.40;99.90;;;;;;5019350;28;20198;-63
2024/01/01 06:57:54;;;;;;;8.05;2.47;;;10.40;99.90;;;;;;5022789;28;20210;-63
2024/01/01 07:00:20;;;;;;;6.78;2.13;;;10.50;99.90;;;;;;5023989;28;20181;-64
2024/01/01 07:02:45;;;;;;;5.97;1.83;;;10.40;99.90;;;;;;5045839;28;20174;-63
2024/01/01 07:05:11;;;;;;;7.10;1.75;;;10.40;99.90;;;;;;5031392;28;20247;-64
2024/01/01 07:07:37;;;;;;;7.57;1.90;;;10.40;99.90;;;;;;5036292;28;20188;-63
2024/01/01 07:10:05;;;;;;;6.47;1.60;;;10.40;99.90;;;;;;5031830;28;20193;-62
2024/01/01 07:12:33;;;;;;;4.35;1.55;;;10.40;99.90;;;;;;5029427;28;20175;-62
2024/01/01 07:15:00;;;;;;;4.88;1.45;;;10.40;99.90;;;;;;5043284;28;20201;-63
2024/01/01 07:17:27;;;;;;;6.78;1.60;;;10.40;99.90;;;;;;5031211;28;20200;-63
2024/01/01 07:19:55;;;;;;;5.70;2.03;;;10.40;99.90;;;;;;5033188;28;20194;-63
2024/01/01 07:22:20;;;;;;;6.30;1.70;;;10.30;99.90;;;;;;5034404;28;20265;-62
2024/01/01 07:24:46;;;;;;;8.82;1.88;;;10.40;99.90;;;;;;5033213;28;20268;-64
2024/01/01 07:27:12;;;;;;;8.35;2.13;;;10.30;99.90;;;;;;5039831;28;20180;-63
2024/01/01 07:29:39;;;;;;;7.70;1.75;;;10.30;99.90;;;;;;5037313;28;20207;-63
2024/01/01 07:32:10;;;;;;;6.57;1.48;;;10.30;99.90;;;;;;5051575;28;20213;-62
2024/01/01 07:34:35;;;;;;;5.97;1.65;;;10.30;99.90;;;;;;5037491;28;20196;-63
2024/01/01 07:37:04;;;;;;;5.45;1.80;;;10.20;99.90;;;;;;5050085;28;20186;-63
2024/01/01 07:39:30;;;;;;;4.47;1.30;;;10.30;99.90;;;;;;5038131;28;20182;-63
2024/01/01 07:41:58;;;;;;;6.47;1.63;;;10.30;99.90;;;;;;5045479;28;20185;-64
2024/01/01 07:44:27;;;;;;;4.80;1.67;;;10.20;99.90;;;;;;5034028;28;20170;-61
2024/01/01 07:46:52;;;;;;;8.00;1.60;;;10.20;99.90;;;;;;5034743;28;20303;-63
2024/01/01 07:49:18;;;;;;;5.00;1.58;;;10.20;99.90;;;;;;5035309;28;20200;-62
2024/01/01 07:51:44;;;;;;;5.22;1.50;;;10.20;99.90;;;;;;5035884;28;20201;-63
2024/01/01 07:54:10;;;;;;;3.45;1.17;;;10.20;99.90;;;;;;5036388;28;20178;-62
2024/01/01 07:56:43;;;;;;;6.57;1.50;;;10.20;99.90;;;;;;5036105;28;20199;-63
2024/01/01 07:59:09;;;;;;;3.83;1.02;;;10.30;99.90;;;;;;5052728;28;20519;-63
2024/01/01 08:01:35;;;;;;;6.25;1.60;;;10.20;99.90;;;;;;5037392;28;20193;-62
2024/01/01 08:04:02;;;;;;;4.25;1.42;;;10.20;99.90;;;;;;5034571;28;20207;-63
2024/01/01 08:06:28;;;;;;;4.15;1.10;;;10.20;99.90;;;;;;5035598;28;20178;-62
2024/01/01 08:08:56;;;;;;;5.68;1.30;;;10.20;99.90;;;;;;5036963;28;20440;-63
2024/01/01 08:11:26;;;;;;;4.32;0.93;;;10.10;99.90;;;;;;5037106;28;20170;-63
2024/01/01 08:13:54;;;;;;;3.95;1.10;;;10.20;99.90;;;;;;5036623;28;20181;-62
2024/01/01 08:16:22;;;;;;;4.13;1.38;;;10.10;99.90;;;;;;5033896;28;20190;-62
2024/01/01 08:18:48;;;;;;;3.78;1.20;;;10.10;99.90;;;;;;5036686;28;20453;-62
2024/01/01 08:21:18;;;;;;;4.00;1.10;;;10.10;99.90;;;;;;5034975;28;20198;-63
2024/01/01 08:23:44;;;;;;;3.22;1.17;;;10.00;99.90;;;;;;5034803;28;20166;-62
2024/01/01 08:26:09;;;;;;;4.45;1.10;;;10.10;99.90;;;;;;5029465;28;20200;-63
2024/01/01 08:28:35;;;;;;;2.10;0.80;;;10.00;99.90;;;;;;5052439;28;20170;-63
2024/01/01 08:31:00;;;;;;;3.20;0.82;;;10.00;99.90;;;;;;5031318;28;20182;-62
2024/01/01 08:33:26;;;;;;;3.20;0.93;;;10.10;99.90;;;;;;5033161;28;20367;-64
2024/01/01 08:35:53;;;;;;;3.78;0.90;;;10.00;99.90;;;;;;5033436;28;20245;-62
2024/01/01 08:38:21;;;;;;;2.92;0.90;;;10.00;99.90;;;;;;5034821;28;20212;-62
2024/01/01 08:40:49;;;;;;;3.20;1.20;;;10.00;99.90;;;;;;5036706;28;20182;-62
2024/01/01 08:43:17;;;;;;;3.20;0.90;;;10.00;99.90;;;;;;5042997;28;20176;-62
2024/01/01 08:45:42;;;;;;;2.80;1.00;;;10.00;99.90;;;;;;5073616;28;20197;-63
2024/01/01 08:48:08;;;;;;;2.47;0.93;;;10.00;99.90;;;;;;5060295;28;20235;-62
2024/01/01 08:50:38;;;;;;;3.35;1.23;;;9.90;99.90;;;;;;5038517;28;20174;-62
2024/01/01 08:53:06;;;;;;;2.22;0.75;;;10.00;99.90;;;;;;5064813;28;20228;-62
2024/01/01 08:55:34;;;;;;;2.40;0.90;;;10.00;99.90;;;;;;5052419;28;20197;-63
2024/01/01 08:58:02;;;;;;;2.03;0.77;;;10.00;99.90;;;;;;5036543;28;20208;-64
2024/01/01 09:00:27;;;;;;;1.75;0.98;;;10.00;99.90;;;;;;5036475;28;20236;-63
2024/01/01 09:02:53;;;;;;;2.47;0.88;;;10.00;99.90;;;;;;5072464;28;20181;-62
2024/01/01 09:05:19;;;;;;;2.25;0.90;;;10.00;99.90;;;;;;5056707;28;20206;-63
2024/01/01 09:07:46;;;;;;;1.77;0.70;;;10.00;99.90;;;;;;5036190;28;20189;-62
2024/01/01 09:10:12;;;;;;;1.75;0.65;;;10.00;99.90;;;;;;5017018;28;20175;-63
2024/01/01 09:12:38;;;;;;;1.80;0.73;;;10.00;99.90;;;;;;5037829;28;20189;-63
2024/01/01 09:15:04;;;;;;;2.58;0.65;;;10.00;99.90;;;;;;5021023;28;20267;-63
2024/01/01 09:17:29;;;;;;;1.45;0.60;;;10.00;99.90;;;;;;5052493;28;20363;-65
2024/01/01 09:19:57;;;;;;;0.57;0.40;;;10.00;99.90;;;;;;5035691;28;20174;-63
2024/01/01 09:22:23;;;;;;;0.70;0.45;;;10.00;99.90;;;;;;5035526;28;20185;-64
2024/01/01 09:24:51;;;;;;;1.00;0.45;;;10.00;99.90;;;;;;5033752;28;20197;-63
2024/01/01 09:27:19;;;;;;;2.67;1.10;;;10.10;99.90;;;;;;5043344;28;20268;-63
2024/01/01 09:29:44;;;;;;;1.90;0.80;;;10.10;99.90;;;;;;5043419;28;20182;-63
2024/01/01 09:32:10;;;;;;;1.60;0.52;;;10.10;99.90;;;;;;5033419;28;20178;-63
2024/01/01 09:34:38;;;;;;;2.10;1.13;;;10.20;99.90;;;;;;5034450;28;20173;-64
2024/01/01 09:37:03;;;;;;;1.80;0.80;;;10.20;99.90;;;;;;5033620;28;20210;-63
2024/01/01 09:39:29;;;;;;;1.23;0.55;;;10.30;99.90;;;;;;5032535;28;20186;-64
2024/01/01 09:41:55;;;;;;;0.80;0.50;;;10.30;99.90;;;;;;5035133;28;20166;-63
2024/01/01 09:44:20;;;;;;;2.72;1.33;;;10.30;99.90;;;;;;5033876;28;20213;-64
2024/01/01 09:46:46;;;;;;;1.63;0.90;;;10.30;99.90;;;;;;5035380;28;20178;-63
2024/01/01 09:49:12;;;;;;;1.30;0.57;;;10.30;99.90;;;;;;5043744;28;20261;-64
2024/01/01 09:51:40;;;;;;;1.92;1.13;;;10.30;99.90;;;;;;5035098;28;20213;-64
2024/01/01 09:54:09;;;;;;;0.98;0.63;;;10.20;99.90;;;;;;5044206;28;20176;-62
2024/01/01 09:56:38;;;;;;;0.90;0.40;;;10.30;99.90;;;;;;5068908;28;21404;-64
2024/01/01 09:59:03;;;;;;;2.97;0.60;;;10.20;99.90;;;;;;5035237;28;20548;-63
2024/01/01 10:01:31;;;;;;;1.58;0.60;;;10.20;99.90;;;;;;5035108;28;20578;-64
2024/01/01 10:04:06;;;;;;;1.13;0.50;;;10.20;99.90;;;;;;5037284;28;20220;-64
2024/01/01 10:06:34;;;;;;;2.00;0.68;;;10.20;99.90;;;;;;5033307;28;20248;-63
2024/01/01 10:09:08;;;;;;;1.20;0.63;;;10.20;99.90;;;;;;5034723;28;20193;-63
2024/01/01 10:11:40;;;;;;;1.05;0.63;;;10.20;99.90;;;;;;5034599;28;20222;-63
2024/01/01 10:14:09;;;;;;;1.80;0.80;;;10.20;99.90;;;;;;5035227;28;20381;-63
2024/01/01 10:16:39;;;;;;;1.05;0.50;;;10.10;99.90;;;;;;5034497;28;20236;-63
2024/01/01 10:19:07;;;;;;;1.45;0.50;;;10.20;99.90;;;;;;5035205;28;20166;-63
2024/01/01 10:21:38;;;;;;;1.00;0.50;;;10.20;99.90;;;;;;5034819;28;20178;-63
2024/01/01 10:24:21;;;;;;;2.08;0.80;;;10.20;99.90;;;;;;5030985;28;20445;-63
2024/01/01 10:26:50;;;;;;;1.42;0.60;;;10.20;99.90;;;;;;5035785;28;20282;-63
2024/01/01 10:29:20;;;;;;;1.13;0.60;;;10.30;99.90;;;;;;5034014;28;20178;-63
2024/01/01 10:31:47;;;;;;;1.73;0.60;;;10.30;99.90;;;;;;5035089;28;20187;-64
2024/01/01 10:34:13;;;;;;;1.45;0.50;;;10.30;99.90;;;;;;5034054;28;20185;-64
2024/01/01 10:36:45;;;;;;;1.20;0.60;;;10.20;99.90;;;;;;5033659;28;20313;-63
2024/01/01 10:39:12;;;;;;;1.35;0.70;;;10.30;99.90;;;;;;5032709;28;20178;-63
2024/01/01 10:41:42;;;;;;;1.33;0.77;;;10.30;99.90;;;;;;5046701;28;20174;-63
2024/01/01 10:44:08;;;;;;;2.35;0.70;;;10.30;99.90;;;;;;5043757;28;20198;-63
2024/01/01 10:46:39;;;;;;;2.67;0.88;;;10.30;99.90;;;;;;5032600;28;20174;-63
2024/01/01 10:49:15;;;;;;;2.45;0.80;;;10.30;99.90;;;;;;5025291;28;20219;-63
2024/01/01 10:51:53;;;;;;;2.03;0.90;;;10.30;99.90;;;;;;5030028;28;20273;-62
2024/01/01 10:54:31;;;;;;;1.70;0.60;;;10.30;99.90;;;;;;5033766;28;20285;-62
2024/01/01 10:57:15;;;;;;;1.80;0.70;;;10.30;99.90;;;;;;5026354;28;20264;-63
2024/01/01 10:59:51;;;;;;;1.23;0.70;;;10.30;99.90;;;;;;5041568;28;20182;-62
2024/01/01 11:02:17;;;;;;;1.70;0.85;;;10.40;99.90;;;;;;5033369;28;20197;-62
2024/01/01 11:04:47;;;;;;;2.47;0.93;;;10.30;99.90;;;;;;5032117;28;20177;-63
2024/01/01 11:07:13;;;;;;;1.83;0.70;;;10.40;99.90;;;;;;5031432;28;20178;-62
2024/01/01 11:09:39;;;;;;;1.38;0.63;;;10.40;99.90;;;;;;5048103;28;20209;-64
2024/01/01 11:12:05;;;;;;;2.88;0.63;;;10.40;99.90;;;;;;5032786;28;20525;-64
2024/01/01 11:14:44;;;;;;;1.48;0.55;;;10.40;99.90;;;;;;5035795;28;20196;-64
2024/01/01 11:17:11;;;;;;;4.25;0.73;;;10.40;99.90;;;;;;5024040;28;20225;-64
2024/01/01 11:19:51;;;;;;;1.52;0.60;;;10.40;99.90;;;;;;5032350;28;20174;-63
2024/01/01 11:22:30;;;;;;;5.80;3.45;;;10.50;99.90;;;;;;5043967;28;20178;-63
2024/01/01 11:24:59;;;;;;;9.07;4.15;;;10.50;99.90;;;;;;5042077;28;20177;-63
2024/01/01 11:27:37;;;;;;;7.20;2.40;;;10.50;99.90;;;;;;5047697;28;20177;-64
2024/01/01 11:30:07;;;;;;;3.78;1.20;;;10.60;99.90;;;;;;5048783;28;20206;-63
2024/01/01 11:32:35;;;;;;;2.55;1.02;;;10.60;99.90;;;;;;5048763;28;20179;-63
2024/01/01 11:35:07;;;;;;;2.53;0.98;;;10.60;99.90;;;;;;5032106;28;20264;-64
2024/01/01 11:37:39;;;;;;;3.72;0.80;;;10.70;99.90;;;;;;5032498;28;20235;-64
2024/01/01 11:40:06;;;;;;;2.03;1.02;;;10.80;99.90;;;;;;5028854;28;20257;-63
2024/01/01 11:42:32;;;;;;;2.20;0.82;;;10.80;99.90;;;;;;5031745;28;20332;-64
2024/01/01 11:45:14;;;;;;;2.00;0.70;;;10.90;99.90;;;;;;5032614;28;20250;-64
2024/01/01 11:47:46;;;;;;;1.88;0.68;;;10.90;99.90;;;;;;5031763;28;20177;-64
2024/01/01 11:50:12;;;;;;;2.13;0.80;;;11.00;99.90;;;;;;5034319;28;20209;-65
2024/01/01 11:52:41;;;;;;;2.50;0.80;;;11.10;99.90;;;;;;5044795;28;20178;-64
2024/01/01 11:55:07;;;;;;;1.73;0.73;;;11.20;99.90;;;;;;5035291;28;20241;-64
2024/01/01 11:57:34;;;;;;;3.45;0.85;;;11.40;99.90;;;;;;5033131;28;20198;-63
2024/01/01 12:00:03;;;;;;;1.98;0.90;;;11.40;99.90;;;;;;5031685;28;20182;-63
2024/01/01 12:02:29;;;;;;;4.70;1.10;;;11.60;99.90;;;;;;5031511;28;20205;-63
2024/01/01 12:04:55;;;;;;;2.55;0.70;;;11.60;99.90;;;;;;5048755;28;20303;-63
2024/01/01 12:07:31;;;;;;;1.50;0.70;;;11.60;99.90;;;;;;5043655;28;20328;-63
2024/01/01 12:10:07;;;;;;;2.60;0.80;;;11.60;99.90;;;;;;5032132;28;20201;-64
2024/01/01 12:12:34;;;;;;;3.22;0.95;;;11.50;99.90;;;;;;5046499;28;20222;-63
2024/01/01 12:15:16;;;;;;;3.75;1.10;;;11.50;99.90;;;;;;5053345;28;20189;-64
2024/01/01 12:17:43;;;;;;;2.85;1.00;;;11.40;99.90;;;;;;5032392;28;20193;-64
2024/01/01 12:20:16;;;;;;;2.47;1.00;;;11.40;99.90;;;;;;5031219;28;20189;-64
2024/01/01 12:22:42;;;;;;;4.45;1.40;;;11.40;99.90;;;;;;5037399;28;20178;-64
2024/01/01 12:25:16;;;;;;;5.32;1.25;;;11.40;99.90;;;;;;5036741;28;20213;-64
2024/01/01 12:27:42;;;;;;;4.28;1.27;;;11.40;99.90;;;;;;5029014;28;20213;-67
2024/01/01 12:30:22;;;;;;;3.40;1.10;;;11.30;99.90;;;;;;5035761;28;20178;-67
2024/01/01 12:32:47;;;;;;;3.58;1.35;;;11.30;99.90;;;;;;5037489;28;20158;-68
2024/01/01 12:35:13;;;;;;;5.03;0.95;;;11.30;99.90;;;;;;5036367;28;20201;-69
2024/01/01 12:37:41;;;;;;;2.83;1.00;;;11.40;99.90;;;;;;5036376;28;20205;-69
2024/01/01 12:40:09;;;;;;;4.70;1.30;;;11.40;99.90;;;;;;5044094;28;20186;-68
2024/01/01 12:42:42;;;;;;;5.00;1.33;;;11.40;99.90;;;;;;5034894;28;20220;-69
2024/01/01 12:45:08;;;;;;;6.07;1.42;;;11.40;99.90;;;;;;5046062;28;20181;-69
2024/01/01 12:47:34;;;;;;;6.45;1.40;;;11.40;99.90;;;;;;5033494;28;20201;-70
2024/01/01 12:49:59;;;;;;;4.57;1.15;;;11.40;99.90;;;;;;5036761;28;20185;-69